sensor_id;sensor_type;location;lat;lon;timestamp;P1;durP1;ratioP1;P2;durP2;ratioP2
14486;SDS011;7329;50.866;4.366;2022-07-06T00:01:05;1.65;;;1.20;;
14486;SDS011;7329;50.866;4.366;2022-07-06T00:03:07;2.05;;;1.20;;
14486;SDS011;7329;50.866;4.366;2022-07-06T00:05:10;2.33;;;1.15;;
14486;SDS011;7329;50.866;4.366;2022-07-06T00:07:13;3.13;;;1.20;;
14486;SDS011;7329;50.866;4.366;2022-07-06T00:09:16;2.60;;;1.30;;
14486;SDS011;7329;50.866;4.366;2022-07-06T00:11:18;2.25;;;1.27;;
14486;SDS011;7329;50.866;4.366;2022-07-06T00:13:21;1.50;;;1.17;;
14486;SDS011;7329;50.866;4.366;2022-07-06T00:15:23;2.92;;;1.30;;
14486;SDS011;7329;50.866;4.366;2022-07-06T00:17:26;1.45;;;1.08;;
14486;SDS011;7329;50.866;4.366;2022-07-06T00:19:28;1.63;;;1.08;;
14486;SDS011;7329;50.866;4.366;2022-07-06T00:21:30;1.70;;;1.30;;
14486;SDS011;7329;50.866;4.366;2022-07-06T00:23:34;3.15;;;1.42;;
14486;SDS011;7329;50.866;4.366;2022-07-06T00:25:36;2.47;;;1.10;;
14486;SDS011;7329;50.866;4.366;2022-07-06T00:27:38;1.83;;;1.20;;
14486;SDS011;7329;50.866;4.366;2022-07-06T00:29:41;1.58;;;1.10;;
14486;SDS011;7329;50.866;4.366;2022-07-06T00:31:44;1.50;;;1.30;;
14486;SDS011;7329;50.866;4.366;2022-07-06T00:33:46;2.25;;;1.25;;
14486;SDS011;7329;50.866;4.366;2022-07-06T00:35:49;2.13;;;1.40;;
14486;SDS011;7329;50.866;4.366;2022-07-06T00:37:51;2.70;;;1.38;;
14486;SDS011;7329;50.866;4.366;2022-07-06T00:39:55;1.80;;;1.35;;
14486;SDS011;7329;50.866;4.366;2022-07-06T00:41:58;1.80;;;1.02;;
14486;SDS011;7329;50.866;4.366;2022-07-06T00:44:00;1.42;;;1.00;;
14486;SDS011;7329;50.866;4.366;2022-07-06T00:46:09;3.17;;;1.40;;
14486;SDS011;7329;50.866;4.366;2022-07-06T00:48:11;2.30;;;1.40;;
14486;SDS011;7329;50.866;4.366;2022-07-06T00:50:15;3.00;;;1.30;;
14486;SDS011;7329;50.866;4.366;2022-07-06T00:52:21;2.03;;;1.30;;
14486;SDS011;7329;50.866;4.366;2022-07-06T00:54:24;3.13;;;1.60;;
14486;SDS011;7329;50.866;4.366;2022-07-06T00:56:28;1.83;;;1.17;;
14486;SDS011;7329;50.866;4.366;2022-07-06T00:58:32;1.73;;;1.10;;
14486;SDS011;7329;50.866;4.366;2022-07-06T01:00:35;2.55;;;1.27;;
14486;SDS011;7329;50.866;4.366;2022-07-06T01:02:39;2.33;;;1.20;;
14486;SDS011;7329;50.866;4.366;2022-07-06T01:04:42;1.67;;;0.95;;
14486;SDS011;7329;50.866;4.366;2022-07-06T01:06:44;2.15;;;1.10;;
14486;SDS011;7329;50.866;4.366;2022-07-06T01:08:47;2.20;;;1.27;;
14486;SDS011;7329;50.866;4.366;2022-07-06T01:10:50;2.95;;;1.40;;
14486;SDS011;7329;50.866;4.366;2022-07-06T01:12:54;2.78;;;1.20;;
14486;SDS011;7329;50.866;4.366;2022-07-06T01:14:57;2.58;;;1.30;;
14486;SDS011;7329;50.866;4.366;2022-07-06T01:17:00;3.70;;;1.33;;
14486;SDS011;7329;50.866;4.366;2022-07-06T01:19:03;2.75;;;1.17;;
14486;SDS011;7329;50.866;4.366;2022-07-06T01:21:10;2.55;;;1.20;;
14486;SDS011;7329;50.866;4.366;2022-07-06T01:23:14;1.95;;;1.25;;
14486;SDS011;7329;50.866;4.366;2022-07-06T01:25:16;2.08;;;1.30;;
14486;SDS011;7329;50.866;4.366;2022-07-06T01:27:20;1.42;;;1.10;;
14486;SDS011;7329;50.866;4.366;2022-07-06T01:29:22;1.98;;;1.30;;
14486;SDS011;7329;50.866;4.366;2022-07-06T01:31:26;1.70;;;1.10;;
14486;SDS011;7329;50.866;4.366;2022-07-06T01:33:28;1.70;;;1.38;;
14486;SDS011;7329;50.866;4.366;2022-07-06T01:35:31;2.78;;;1.25;;
14486;SDS011;7329;50.866;4.366;2022-07-06T01:37:36;2.20;;;1.10;;
14486;SDS011;7329;50.866;4.366;2022-07-06T01:39:38;2.30;;;1.30;;
14486;SDS011;7329;50.866;4.366;2022-07-06T01:41:41;1.58;;;1.23;;
14486;SDS011;7329;50.866;4.366;2022-07-06T01:43:43;1.58;;;1.13;;
14486;SDS011;7329;50.866;4.366;2022-07-06T01:45:45;1.33;;;1.05;;
14486;SDS011;7329;50.866;4.366;2022-07-06T01:47:48;3.15;;;1.30;;
14486;SDS011;7329;50.866;4.366;2022-07-06T01:49:50;2.35;;;1.25;;
14486;SDS011;7329;50.866;4.366;2022-07-06T01:51:52;2.47;;;1.30;;
14486;SDS011;7329;50.866;4.366;2022-07-06T01:53:56;1.60;;;1.10;;
14486;SDS011;7329;50.866;4.366;2022-07-06T01:55:58;1.83;;;1.48;;
14486;SDS011;7329;50.866;4.366;2022-07-06T01:58:01;3.28;;;1.10;;
14486;SDS011;7329;50.866;4.366;2022-07-06T02:00:04;1.63;;;1.10;;
14486;SDS011;7329;50.866;4.366;2022-07-06T02:02:08;2.25;;;1.17;;
14486;SDS011;7329;50.866;4.366;2022-07-06T02:04:11;1.30;;;1.20;;
14486;SDS011;7329;50.866;4.366;2022-07-06T02:06:13;2.08;;;1.38;;
14486;SDS011;7329;50.866;4.366;2022-07-06T02:08:16;1.67;;;1.15;;
14486;SDS011;7329;50.866;4.366;2022-07-06T02:10:19;1.55;;;1.30;;
14486;SDS011;7329;50.866;4.366;2022-07-06T02:12:22;2.45;;;1.55;;
14486;SDS011;7329;50.866;4.366;2022-07-06T02:14:24;2.28;;;1.30;;
14486;SDS011;7329;50.866;4.366;2022-07-06T02:16:27;3.47;;;1.17;;
14486;SDS011;7329;50.866;4.366;2022-07-06T02:18:29;1.42;;;1.30;;
14486;SDS011;7329;50.866;4.366;2022-07-06T02:20:31;1.48;;;1.15;;
14486;SDS011;7329;50.866;4.366;2022-07-06T02:22:33;2.00;;;1.30;;
14486;SDS011;7329;50.866;4.366;2022-07-06T02:24:36;1.55;;;1.20;;
14486;SDS011;7329;50.866;4.366;2022-07-06T02:26:39;1.92;;;1.27;;
14486;SDS011;7329;50.866;4.366;2022-07-06T02:28:42;2.22;;;1.33;;
14486;SDS011;7329;50.866;4.366;2022-07-06T02:30:45;1.67;;;1.08;;
14486;SDS011;7329;50.866;4.366;2022-07-06T02:32:48;1.20;;;1.00;;
14486;SDS011;7329;50.866;4.366;2022-07-06T02:34:50;3.05;;;1.33;;
14486;SDS011;7329;50.866;4.366;2022-07-06T02:36:53;1.83;;;1.10;;
14486;SDS011;7329;50.866;4.366;2022-07-06T02:38:55;3.70;;;1.48;;
14486;SDS011;7329;50.866;4.366;2022-07-06T02:40:57;1.17;;;1.02;;
14486;SDS011;7329;50.866;4.366;2022-07-06T02:43:01;1.63;;;1.15;;
14486;SDS011;7329;50.866;4.366;2022-07-06T02:45:04;2.22;;;1.20;;
14486;SDS011;7329;50.866;4.366;2022-07-06T02:47:07;2.30;;;1.35;;
14486;SDS011;7329;50.866;4.366;2022-07-06T02:49:09;2.60;;;1.30;;
14486;SDS011;7329;50.866;4.366;2022-07-06T02:51:12;1.60;;;1.15;;
14486;SDS011;7329;50.866;4.366;2022-07-06T02:53:14;1.80;;;1.20;;
14486;SDS011;7329;50.866;4.366;2022-07-06T02:55:16;2.10;;;1.38;;
14486;SDS011;7329;50.866;4.366;2022-07-06T02:57:19;1.17;;;1.02;;
14486;SDS011;7329;50.866;4.366;2022-07-06T02:59:23;2.45;;;1.20;;
14486;SDS011;7329;50.866;4.366;2022-07-06T03:01:25;2.75;;;1.30;;
14486;SDS011;7329;50.866;4.366;2022-07-06T03:03:27;1.90;;;1.38;;
14486;SDS011;7329;50.866;4.366;2022-07-06T03:05:30;2.08;;;1.17;;
14486;SDS011;7329;50.866;4.366;2022-07-06T03:07:32;2.85;;;1.15;;
14486;SDS011;7329;50.866;4.366;2022-07-06T03:09:34;2.20;;;1.17;;
14486;SDS011;7329;50.866;4.366;2022-07-06T03:11:37;1.67;;;1.10;;
14486;SDS011;7329;50.866;4.366;2022-07-06T03:13:39;2.88;;;1.38;;
14486;SDS011;7329;50.866;4.366;2022-07-06T03:15:43;1.77;;;1.10;;
14486;SDS011;7329;50.866;4.366;2022-07-06T03:17:45;1.73;;;1.42;;
14486;SDS011;7329;50.866;4.366;2022-07-06T03:19:47;2.38;;;1.10;;
14486;SDS011;7329;50.866;4.366;2022-07-06T03:21:50;1.80;;;1.00;;
14486;SDS011;7329;50.866;4.366;2022-07-06T03:23:52;4.47;;;1.20;;
14486;SDS011;7329;50.866;4.366;2022-07-06T03:25:55;1.35;;;1.20;;
14486;SDS011;7329;50.866;4.366;2022-07-06T03:27:57;2.35;;;1.35;;
14486;SDS011;7329;50.866;4.366;2022-07-06T03:29:59;2.10;;;1.40;;
14486;SDS011;7329;50.866;4.366;2022-07-06T03:32:03;2.70;;;1.40;;
14486;SDS011;7329;50.866;4.366;2022-07-06T03:34:06;2.75;;;1.20;;
14486;SDS011;7329;50.866;4.366;2022-07-06T03:36:08;1.50;;;1.30;;
14486;SDS011;7329;50.866;4.366;2022-07-06T03:38:11;2.38;;;1.20;;
14486;SDS011;7329;50.866;4.366;2022-07-06T03:40:13;2.08;;;1.30;;
14486;SDS011;7329;50.866;4.366;2022-07-06T03:42:16;2.13;;;1.20;;
14486;SDS011;7329;50.866;4.366;2022-07-06T03:44:18;2.78;;;1.48;;
14486;SDS011;7329;50.866;4.366;2022-07-06T03:46:21;2.03;;;1.33;;
14486;SDS011;7329;50.866;4.366;2022-07-06T03:48:24;2.75;;;1.50;;
14486;SDS011;7329;50.866;4.366;2022-07-06T03:50:26;3.85;;;1.20;;
14486;SDS011;7329;50.866;4.366;2022-07-06T03:52:29;2.22;;;1.38;;
14486;SDS011;7329;50.866;4.366;2022-07-06T03:54:31;2.78;;;1.45;;
14486;SDS011;7329;50.866;4.366;2022-07-06T03:56:33;1.70;;;1.30;;
14486;SDS011;7329;50.866;4.366;2022-07-06T03:58:38;1.90;;;1.30;;
14486;SDS011;7329;50.866;4.366;2022-07-06T04:00:41;2.00;;;1.25;;
14486;SDS011;7329;50.866;4.366;2022-07-06T04:02:43;2.90;;;1.30;;
14486;SDS011;7329;50.866;4.366;2022-07-06T04:04:46;3.03;;;1.20;;
14486;SDS011;7329;50.866;4.366;2022-07-06T04:06:49;1.90;;;1.10;;
14486;SDS011;7329;50.866;4.366;2022-07-06T04:08:51;1.70;;;1.13;;
14486;SDS011;7329;50.866;4.366;2022-07-06T04:10:53;1.60;;;1.15;;
14486;SDS011;7329;50.866;4.366;2022-07-06T04:12:56;4.20;;;1.35;;
14486;SDS011;7329;50.866;4.366;2022-07-06T04:14:58;2.55;;;1.38;;
14486;SDS011;7329;50.866;4.366;2022-07-06T04:17:00;1.92;;;1.50;;
14486;SDS011;7329;50.866;4.366;2022-07-06T04:19:24;2.78;;;1.65;;
14486;SDS011;7329;50.866;4.366;2022-07-06T04:21:27;3.35;;;1.50;;
14486;SDS011;7329;50.866;4.366;2022-07-06T04:23:29;2.40;;;1.30;;
14486;SDS011;7329;50.866;4.366;2022-07-06T04:25:32;2.97;;;1.23;;
14486;SDS011;7329;50.866;4.366;2022-07-06T04:27:35;3.10;;;1.40;;
14486;SDS011;7329;50.866;4.366;2022-07-06T04:29:37;3.85;;;1.50;;
14486;SDS011;7329;50.866;4.366;2022-07-06T04:31:39;2.65;;;1.40;;
14486;SDS011;7329;50.866;4.366;2022-07-06T04:33:43;1.33;;;1.05;;
14486;SDS011;7329;50.866;4.366;2022-07-06T04:35:45;3.42;;;1.10;;
14486;SDS011;7329;50.866;4.366;2022-07-06T04:37:49;3.72;;;1.50;;
14486;SDS011;7329;50.866;4.366;2022-07-06T04:39:51;1.55;;;1.25;;
14486;SDS011;7329;50.866;4.366;2022-07-06T04:41:54;1.88;;;1.35;;
14486;SDS011;7329;50.866;4.366;2022-07-06T04:43:56;2.58;;;1.48;;
14486;SDS011;7329;50.866;4.366;2022-07-06T04:45:58;2.30;;;1.35;;
14486;SDS011;7329;50.866;4.366;2022-07-06T04:48:01;3.08;;;1.50;;
14486;SDS011;7329;50.866;4.366;2022-07-06T04:50:05;2.80;;;1.50;;
14486;SDS011;7329;50.866;4.366;2022-07-06T04:52:08;5.78;;;1.60;;
14486;SDS011;7329;50.866;4.366;2022-07-06T04:54:11;1.88;;;1.27;;
14486;SDS011;7329;50.866;4.366;2022-07-06T04:56:14;2.00;;;1.40;;
14486;SDS011;7329;50.866;4.366;2022-07-06T04:58:16;3.13;;;1.65;;
14486;SDS011;7329;50.866;4.366;2022-07-06T05:00:19;2.13;;;1.42;;
14486;SDS011;7329;50.866;4.366;2022-07-06T05:02:21;1.73;;;1.20;;
14486;SDS011;7329;50.866;4.366;2022-07-06T05:04:24;2.47;;;1.77;;
14486;SDS011;7329;50.866;4.366;2022-07-06T05:06:26;4.03;;;1.40;;
14486;SDS011;7329;50.866;4.366;2022-07-06T05:08:28;2.42;;;1.42;;
14486;SDS011;7329;50.866;4.366;2022-07-06T05:10:32;2.03;;;1.20;;
14486;SDS011;7329;50.866;4.366;2022-07-06T05:12:34;2.17;;;1.40;;
14486;SDS011;7329;50.866;4.366;2022-07-06T05:14:37;3.00;;;1.67;;
14486;SDS011;7329;50.866;4.366;2022-07-06T05:16:39;3.83;;;1.50;;
14486;SDS011;7329;50.866;4.366;2022-07-06T05:18:41;4.10;;;1.67;;
14486;SDS011;7329;50.866;4.366;2022-07-06T05:20:44;3.97;;;1.48;;
14486;SDS011;7329;50.866;4.366;2022-07-06T05:22:46;4.35;;;1.50;;
14486;SDS011;7329;50.866;4.366;2022-07-06T05:24:48;2.55;;;1.38;;
14486;SDS011;7329;50.866;4.366;2022-07-06T05:26:52;2.35;;;1.30;;
14486;SDS011;7329;50.866;4.366;2022-07-06T05:28:54;2.53;;;1.25;;
14486;SDS011;7329;50.866;4.366;2022-07-06T05:30:56;2.88;;;1.30;;
14486;SDS011;7329;50.866;4.366;2022-07-06T05:32:59;2.20;;;1.30;;
14486;SDS011;7329;50.866;4.366;2022-07-06T05:35:01;3.85;;;1.30;;
14486;SDS011;7329;50.866;4.366;2022-07-06T05:37:04;3.55;;;1.30;;
14486;SDS011;7329;50.866;4.366;2022-07-06T05:39:06;2.83;;;1.60;;
14486;SDS011;7329;50.866;4.366;2022-07-06T05:41:08;2.17;;;1.40;;
14486;SDS011;7329;50.866;4.366;2022-07-06T05:43:12;2.15;;;1.30;;
14486;SDS011;7329;50.866;4.366;2022-07-06T05:45:14;1.58;;;1.17;;
14486;SDS011;7329;50.866;4.366;2022-07-06T05:47:17;3.15;;;1.58;;
14486;SDS011;7329;50.866;4.366;2022-07-06T05:49:36;3.30;;;1.48;;
14486;SDS011;7329;50.866;4.366;2022-07-06T05:51:56;3.72;;;1.65;;
14486;SDS011;7329;50.866;4.366;2022-07-06T05:53:58;3.78;;;1.50;;
14486;SDS011;7329;50.866;4.366;2022-07-06T05:56:01;2.17;;;1.23;;
14486;SDS011;7329;50.866;4.366;2022-07-06T05:58:03;3.08;;;1.50;;
14486;SDS011;7329;50.866;4.366;2022-07-06T06:00:07;4.70;;;1.63;;
14486;SDS011;7329;50.866;4.366;2022-07-06T06:02:10;1.92;;;1.30;;
14486;SDS011;7329;50.866;4.366;2022-07-06T06:04:12;2.92;;;1.52;;
14486;SDS011;7329;50.866;4.366;2022-07-06T06:06:14;2.92;;;1.77;;
14486;SDS011;7329;50.866;4.366;2022-07-06T06:08:17;2.53;;;1.40;;
14486;SDS011;7329;50.866;4.366;2022-07-06T06:10:19;3.03;;;1.60;;
14486;SDS011;7329;50.866;4.366;2022-07-06T06:12:23;1.98;;;1.40;;
14486;SDS011;7329;50.866;4.366;2022-07-06T06:14:25;3.80;;;1.60;;
14486;SDS011;7329;50.866;4.366;2022-07-06T06:16:29;2.15;;;1.60;;
14486;SDS011;7329;50.866;4.366;2022-07-06T06:18:31;4.45;;;1.73;;
14486;SDS011;7329;50.866;4.366;2022-07-06T06:20:34;2.05;;;1.30;;
14486;SDS011;7329;50.866;4.366;2022-07-06T06:22:46;3.17;;;1.67;;
14486;SDS011;7329;50.866;4.366;2022-07-06T06:24:49;2.63;;;1.30;;
14486;SDS011;7329;50.866;4.366;2022-07-06T06:26:51;3.15;;;1.35;;
14486;SDS011;7329;50.866;4.366;2022-07-06T06:28:53;5.18;;;1.60;;
14486;SDS011;7329;50.866;4.366;2022-07-06T06:30:55;4.07;;;1.70;;
14486;SDS011;7329;50.866;4.366;2022-07-06T06:33:09;2.42;;;1.40;;
14486;SDS011;7329;50.866;4.366;2022-07-06T06:35:12;4.22;;;1.45;;
14486;SDS011;7329;50.866;4.366;2022-07-06T06:37:15;3.35;;;1.60;;
14486;SDS011;7329;50.866;4.366;2022-07-06T06:39:17;3.88;;;1.40;;
14486;SDS011;7329;50.866;4.366;2022-07-06T06:41:19;3.60;;;1.67;;
14486;SDS011;7329;50.866;4.366;2022-07-06T06:43:22;2.47;;;1.65;;
14486;SDS011;7329;50.866;4.366;2022-07-06T06:45:24;2.88;;;1.40;;
14486;SDS011;7329;50.866;4.366;2022-07-06T06:47:26;3.85;;;1.70;;
14486;SDS011;7329;50.866;4.366;2022-07-06T06:49:30;2.35;;;1.50;;
14486;SDS011;7329;50.866;4.366;2022-07-06T06:51:32;2.28;;;1.20;;
14486;SDS011;7329;50.866;4.366;2022-07-06T06:53:34;3.97;;;1.60;;
14486;SDS011;7329;50.866;4.366;2022-07-06T06:55:37;2.78;;;1.50;;
14486;SDS011;7329;50.866;4.366;2022-07-06T06:57:39;1.85;;;1.25;;
14486;SDS011;7329;50.866;4.366;2022-07-06T06:59:42;2.83;;;1.30;;
14486;SDS011;7329;50.866;4.366;2022-07-06T07:01:44;2.83;;;1.40;;
14486;SDS011;7329;50.866;4.366;2022-07-06T07:03:47;2.90;;;1.45;;
14486;SDS011;7329;50.866;4.366;2022-07-06T07:05:50;3.38;;;1.35;;
14486;SDS011;7329;50.866;4.366;2022-07-06T07:07:53;7.63;;;2.75;;
14486;SDS011;7329;50.866;4.366;2022-07-06T07:09:59;6.72;;;2.45;;
14486;SDS011;7329;50.866;4.366;2022-07-06T07:12:04;5.80;;;2.22;;
14486;SDS011;7329;50.866;4.366;2022-07-06T07:14:06;7.45;;;2.67;;
14486;SDS011;7329;50.866;4.366;2022-07-06T07:16:09;9.27;;;2.80;;
14486;SDS011;7329;50.866;4.366;2022-07-06T07:18:11;12.77;;;2.72;;
14486;SDS011;7329;50.866;4.366;2022-07-06T07:20:13;4.85;;;1.77;;
14486;SDS011;7329;50.866;4.366;2022-07-06T07:22:17;8.65;;;2.50;;
14486;SDS011;7329;50.866;4.366;2022-07-06T07:24:19;8.13;;;2.55;;
14486;SDS011;7329;50.866;4.366;2022-07-06T07:26:22;10.02;;;2.50;;
14486;SDS011;7329;50.866;4.366;2022-07-06T07:28:24;5.60;;;2.17;;
14486;SDS011;7329;50.866;4.366;2022-07-06T07:30:26;3.30;;;1.77;;
14486;SDS011;7329;50.866;4.366;2022-07-06T07:32:28;7.57;;;1.92;;
14486;SDS011;7329;50.866;4.366;2022-07-06T07:34:31;4.93;;;2.08;;
14486;SDS011;7329;50.866;4.366;2022-07-06T07:36:33;4.25;;;1.52;;
14486;SDS011;7329;50.866;4.366;2022-07-06T07:38:37;4.88;;;1.80;;
14486;SDS011;7329;50.866;4.366;2022-07-06T07:40:39;7.45;;;2.13;;
14486;SDS011;7329;50.866;4.366;2022-07-06T07:42:42;2.50;;;1.60;;
14486;SDS011;7329;50.866;4.366;2022-07-06T07:44:45;3.63;;;1.70;;
14486;SDS011;7329;50.866;4.366;2022-07-06T07:46:47;4.53;;;1.67;;
14486;SDS011;7329;50.866;4.366;2022-07-06T07:48:50;8.18;;;1.88;;
14486;SDS011;7329;50.866;4.366;2022-07-06T07:50:52;4.45;;;1.50;;
14486;SDS011;7329;50.866;4.366;2022-07-06T07:52:55;3.55;;;1.60;;
14486;SDS011;7329;50.866;4.366;2022-07-06T07:54:58;3.78;;;1.60;;
14486;SDS011;7329;50.866;4.366;2022-07-06T07:57:01;9.63;;;2.05;;
14486;SDS011;7329;50.866;4.366;2022-07-06T07:59:04;6.63;;;1.75;;
14486;SDS011;7329;50.866;4.366;2022-07-06T08:01:06;6.63;;;1.73;;
14486;SDS011;7329;50.866;4.366;2022-07-06T08:03:08;4.90;;;1.73;;
14486;SDS011;7329;50.866;4.366;2022-07-06T08:05:10;5.72;;;2.03;;
14486;SDS011;7329;50.866;4.366;2022-07-06T08:07:14;8.15;;;2.00;;
14486;SDS011;7329;50.866;4.366;2022-07-06T08:09:16;12.48;;;2.22;;
14486;SDS011;7329;50.866;4.366;2022-07-06T08:11:20;9.43;;;1.55;;
14486;SDS011;7329;50.866;4.366;2022-07-06T08:13:22;4.70;;;1.70;;
14486;SDS011;7329;50.866;4.366;2022-07-06T08:15:24;5.03;;;1.73;;
14486;SDS011;7329;50.866;4.366;2022-07-06T08:17:27;6.35;;;2.10;;
14486;SDS011;7329;50.866;4.366;2022-07-06T08:19:30;6.93;;;1.50;;
14486;SDS011;7329;50.866;4.366;2022-07-06T08:21:34;7.13;;;2.20;;
14486;SDS011;7329;50.866;4.366;2022-07-06T08:23:36;9.85;;;2.10;;
14486;SDS011;7329;50.866;4.366;2022-07-06T08:25:38;5.90;;;2.30;;
14486;SDS011;7329;50.866;4.366;2022-07-06T08:27:43;7.70;;;2.10;;
14486;SDS011;7329;50.866;4.366;2022-07-06T08:29:46;6.20;;;2.42;;
14486;SDS011;7329;50.866;4.366;2022-07-06T08:31:49;4.35;;;2.13;;
14486;SDS011;7329;50.866;4.366;2022-07-06T08:33:51;6.35;;;2.17;;
14486;SDS011;7329;50.866;4.366;2022-07-06T08:35:54;7.30;;;2.72;;
14486;SDS011;7329;50.866;4.366;2022-07-06T08:37:56;4.68;;;2.35;;
14486;SDS011;7329;50.866;4.366;2022-07-06T08:39:58;6.07;;;2.40;;
14486;SDS011;7329;50.866;4.366;2022-07-06T08:42:01;4.97;;;2.33;;
14486;SDS011;7329;50.866;4.366;2022-07-06T08:44:05;4.82;;;2.50;;
14486;SDS011;7329;50.866;4.366;2022-07-06T08:46:09;4.88;;;2.15;;
14486;SDS011;7329;50.866;4.366;2022-07-06T08:48:14;6.85;;;2.83;;
14486;SDS011;7329;50.866;4.366;2022-07-06T08:50:17;6.93;;;2.35;;
14486;SDS011;7329;50.866;4.366;2022-07-06T08:52:21;4.50;;;2.45;;
14486;SDS011;7329;50.866;4.366;2022-07-06T08:54:25;8.48;;;3.03;;
14486;SDS011;7329;50.866;4.366;2022-07-06T08:56:29;8.35;;;3.03;;
14486;SDS011;7329;50.866;4.366;2022-07-06T08:58:32;4.97;;;2.72;;
14486;SDS011;7329;50.866;4.366;2022-07-06T09:00:36;7.55;;;2.72;;
14486;SDS011;7329;50.866;4.366;2022-07-06T09:02:38;8.88;;;3.35;;
14486;SDS011;7329;50.866;4.366;2022-07-06T09:04:42;7.95;;;3.13;;
14486;SDS011;7329;50.866;4.366;2022-07-06T09:06:45;6.85;;;2.90;;
14486;SDS011;7329;50.866;4.366;2022-07-06T09:08:48;8.25;;;3.22;;
14486;SDS011;7329;50.866;4.366;2022-07-06T09:10:51;11.18;;;3.58;;
14486;SDS011;7329;50.866;4.366;2022-07-06T09:13:01;8.57;;;3.80;;
14486;SDS011;7329;50.866;4.366;2022-07-06T09:15:05;5.63;;;2.83;;
14486;SDS011;7329;50.866;4.366;2022-07-06T09:17:09;6.35;;;3.42;;
14486;SDS011;7329;50.866;4.366;2022-07-06T09:19:13;13.00;;;3.67;;
14486;SDS011;7329;50.866;4.366;2022-07-06T09:21:22;8.88;;;2.83;;
14486;SDS011;7329;50.866;4.366;2022-07-06T09:23:26;5.53;;;2.90;;
14486;SDS011;7329;50.866;4.366;2022-07-06T09:25:29;7.32;;;2.60;;
14486;SDS011;7329;50.866;4.366;2022-07-06T09:27:36;6.88;;;2.90;;
14486;SDS011;7329;50.866;4.366;2022-07-06T09:29:39;6.00;;;2.63;;
14486;SDS011;7329;50.866;4.366;2022-07-06T09:31:43;7.05;;;2.60;;
14486;SDS011;7329;50.866;4.366;2022-07-06T09:34:00;8.10;;;2.47;;
14486;SDS011;7329;50.866;4.366;2022-07-06T09:36:05;5.82;;;2.80;;
14486;SDS011;7329;50.866;4.366;2022-07-06T09:38:09;6.68;;;2.90;;
14486;SDS011;7329;50.866;4.366;2022-07-06T09:40:15;6.50;;;2.00;;
14486;SDS011;7329;50.866;4.366;2022-07-06T09:42:21;4.95;;;2.28;;
14486;SDS011;7329;50.866;4.366;2022-07-06T09:44:27;8.38;;;2.95;;
14486;SDS011;7329;50.866;4.366;2022-07-06T09:46:31;5.32;;;2.00;;
14486;SDS011;7329;50.866;4.366;2022-07-06T09:48:40;9.07;;;2.42;;
14486;SDS011;7329;50.866;4.366;2022-07-06T09:50:44;5.53;;;2.42;;
14486;SDS011;7329;50.866;4.366;2022-07-06T09:52:53;6.57;;;2.53;;
14486;SDS011;7329;50.866;4.366;2022-07-06T09:54:56;6.28;;;2.47;;
14486;SDS011;7329;50.866;4.366;2022-07-06T09:56:58;6.05;;;2.33;;
14486;SDS011;7329;50.866;4.366;2022-07-06T09:59:00;6.47;;;2.47;;
14486;SDS011;7329;50.866;4.366;2022-07-06T10:01:09;6.70;;;2.50;;
14486;SDS011;7329;50.866;4.366;2022-07-06T10:03:12;5.65;;;2.38;;
14486;SDS011;7329;50.866;4.366;2022-07-06T10:05:16;5.15;;;2.00;;
14486;SDS011;7329;50.866;4.366;2022-07-06T10:07:20;4.50;;;2.35;;
14486;SDS011;7329;50.866;4.366;2022-07-06T10:09:25;6.82;;;2.22;;
14486;SDS011;7329;50.866;4.366;2022-07-06T10:11:29;5.95;;;2.13;;
14486;SDS011;7329;50.866;4.366;2022-07-06T10:13:33;7.85;;;2.47;;
14486;SDS011;7329;50.866;4.366;2022-07-06T10:15:38;6.57;;;2.20;;
14486;SDS011;7329;50.866;4.366;2022-07-06T10:17:41;5.28;;;1.67;;
14486;SDS011;7329;50.866;4.366;2022-07-06T10:19:45;5.25;;;2.55;;
14486;SDS011;7329;50.866;4.366;2022-07-06T10:21:49;7.57;;;2.38;;
14486;SDS011;7329;50.866;4.366;2022-07-06T10:23:56;5.13;;;1.92;;
14486;SDS011;7329;50.866;4.366;2022-07-06T10:26:00;8.00;;;2.15;;
14486;SDS011;7329;50.866;4.366;2022-07-06T10:28:05;6.20;;;2.45;;
14486;SDS011;7329;50.866;4.366;2022-07-06T10:30:15;8.43;;;2.50;;
14486;SDS011;7329;50.866;4.366;2022-07-06T10:32:17;8.98;;;1.92;;
14486;SDS011;7329;50.866;4.366;2022-07-06T10:34:21;14.32;;;2.40;;
14486;SDS011;7329;50.866;4.366;2022-07-06T10:36:24;4.00;;;2.28;;
14486;SDS011;7329;50.866;4.366;2022-07-06T10:38:30;6.78;;;2.40;;
14486;SDS011;7329;50.866;4.366;2022-07-06T10:40:35;3.10;;;2.00;;
14486;SDS011;7329;50.866;4.366;2022-07-06T10:42:57;10.00;;;2.20;;
14486;SDS011;7329;50.866;4.366;2022-07-06T10:45:00;6.88;;;2.33;;
14486;SDS011;7329;50.866;4.366;2022-07-06T10:47:03;4.22;;;2.10;;
14486;SDS011;7329;50.866;4.366;2022-07-06T10:49:11;6.78;;;2.00;;
14486;SDS011;7329;50.866;4.366;2022-07-06T10:51:22;5.97;;;2.22;;
14486;SDS011;7329;50.866;4.366;2022-07-06T10:53:26;14.20;;;2.10;;
14486;SDS011;7329;50.866;4.366;2022-07-06T10:55:30;6.25;;;2.08;;
14486;SDS011;7329;50.866;4.366;2022-07-06T10:57:41;4.85;;;2.10;;
14486;SDS011;7329;50.866;4.366;2022-07-06T11:00:00;9.63;;;2.60;;
14486;SDS011;7329;50.866;4.366;2022-07-06T11:02:12;6.53;;;2.08;;
14486;SDS011;7329;50.866;4.366;2022-07-06T11:04:16;5.95;;;2.17;;
14486;SDS011;7329;50.866;4.366;2022-07-06T11:06:19;8.52;;;2.10;;
14486;SDS011;7329;50.866;4.366;2022-07-06T11:08:23;5.47;;;2.05;;
14486;SDS011;7329;50.866;4.366;2022-07-06T11:10:53;7.00;;;2.38;;
14486;SDS011;7329;50.866;4.366;2022-07-06T11:12:59;4.57;;;1.92;;
14486;SDS011;7329;50.866;4.366;2022-07-06T11:15:02;6.03;;;2.28;;
14486;SDS011;7329;50.866;4.366;2022-07-06T11:17:05;5.63;;;2.30;;
14486;SDS011;7329;50.866;4.366;2022-07-06T11:19:12;10.60;;;2.58;;
14486;SDS011;7329;50.866;4.366;2022-07-06T11:21:19;6.78;;;2.20;;
14486;SDS011;7329;50.866;4.366;2022-07-06T11:23:25;4.45;;;1.77;;
14486;SDS011;7329;50.866;4.366;2022-07-06T11:25:27;4.32;;;2.00;;
14486;SDS011;7329;50.866;4.366;2022-07-06T11:27:29;13.07;;;2.38;;
14486;SDS011;7329;50.866;4.366;2022-07-06T11:29:33;8.32;;;2.00;;
14486;SDS011;7329;50.866;4.366;2022-07-06T11:31:38;7.90;;;2.30;;
14486;SDS011;7329;50.866;4.366;2022-07-06T11:33:44;6.72;;;2.45;;
14486;SDS011;7329;50.866;4.366;2022-07-06T11:35:47;8.52;;;2.55;;
14486;SDS011;7329;50.866;4.366;2022-07-06T11:37:49;5.53;;;1.90;;
14486;SDS011;7329;50.866;4.366;2022-07-06T11:39:52;4.15;;;2.13;;
14486;SDS011;7329;50.866;4.366;2022-07-06T11:41:54;6.35;;;1.85;;
14486;SDS011;7329;50.866;4.366;2022-07-06T11:43:57;6.65;;;2.00;;
14486;SDS011;7329;50.866;4.366;2022-07-06T11:46:00;5.63;;;2.10;;
14486;SDS011;7329;50.866;4.366;2022-07-06T11:48:09;5.82;;;2.00;;
14486;SDS011;7329;50.866;4.366;2022-07-06T11:50:18;9.93;;;2.10;;
14486;SDS011;7329;50.866;4.366;2022-07-06T11:52:21;3.72;;;1.60;;
14486;SDS011;7329;50.866;4.366;2022-07-06T11:54:24;5.03;;;1.90;;
14486;SDS011;7329;50.866;4.366;2022-07-06T11:56:27;9.30;;;1.88;;
14486;SDS011;7329;50.866;4.366;2022-07-06T11:58:30;5.88;;;2.20;;
14486;SDS011;7329;50.866;4.366;2022-07-06T12:00:36;7.00;;;2.05;;
14486;SDS011;7329;50.866;4.366;2022-07-06T12:02:39;5.60;;;1.80;;
14486;SDS011;7329;50.866;4.366;2022-07-06T12:04:42;2.75;;;1.35;;
14486;SDS011;7329;50.866;4.366;2022-07-06T12:06:45;5.15;;;1.88;;
14486;SDS011;7329;50.866;4.366;2022-07-06T12:08:49;5.60;;;1.80;;
14486;SDS011;7329;50.866;4.366;2022-07-06T12:10:53;6.15;;;1.75;;
14486;SDS011;7329;50.866;4.366;2022-07-06T12:13:01;6.90;;;1.60;;
14486;SDS011;7329;50.866;4.366;2022-07-06T12:15:04;8.48;;;1.42;;
14486;SDS011;7329;50.866;4.366;2022-07-06T12:17:08;4.47;;;1.67;;
14486;SDS011;7329;50.866;4.366;2022-07-06T12:19:13;5.72;;;1.85;;
14486;SDS011;7329;50.866;4.366;2022-07-06T12:21:17;2.45;;;1.45;;
14486;SDS011;7329;50.866;4.366;2022-07-06T12:23:21;5.70;;;1.80;;
14486;SDS011;7329;50.866;4.366;2022-07-06T12:25:30;5.32;;;1.85;;
14486;SDS011;7329;50.866;4.366;2022-07-06T12:27:34;10.20;;;1.80;;
14486;SDS011;7329;50.866;4.366;2022-07-06T12:29:36;4.03;;;1.60;;
14486;SDS011;7329;50.866;4.366;2022-07-06T12:31:39;5.50;;;1.88;;
14486;SDS011;7329;50.866;4.366;2022-07-06T12:33:55;4.03;;;1.60;;
14486;SDS011;7329;50.866;4.366;2022-07-06T12:36:09;4.32;;;1.90;;